Time;durP1;ratioP1;P1;durP2;ratioP2;P2;SDS_P1;SDS_P2;PMS_P1;PMS_P2;Temp;Humidity;BMP_temperature;BMP_pressure;BME280_temperature;BME280_humidity;BME280_pressure;Samples;Min_cycle;Max_cycle;Signal;HPM_P1;HPM_P2
2021/09/12 00:00:22;;;;;;;22.10;10.40;;;;;;;17.56;78.02;100344.16;111549;1204;24117;-55
2021/09/12 00:03:10;;;;;;;21.00;10.10;;;;;;;17.54;78.00;100344.03;111563;1205;24130;-55
2021/09/12 00:05:39;;;;;;;22.70;12.10;;;;;;;17.50;78.02;100345.33;111765;1204;22458;-55
2021/09/12 00:08:07;;;;;;;23.70;11.70;;;;;;;17.45;78.13;100343.91;111675;1205;25550;-57
2021/09/12 00:10:35;;;;;;;20.30;10.60;;;;;;;17.42;78.07;100339.92;111571;1204;22470;-55
2021/09/12 00:13:04;;;;;;;25.70;11.50;;;;;;;17.39;78.01;100342.16;111637;1204;22447;-58
2021/09/12 00:15:33;;;;;;;21.10;10.50;;;;;;;17.37;77.92;100339.86;111769;1204;22456;-54
2021/09/12 00:18:01;;;;;;;20.40;10.50;;;;;;;17.35;77.92;100340.70;111664;1204;24130;-57
2021/09/12 00:20:52;;;;;;;20.20;9.90;;;;;;;17.31;77.98;100341.39;111653;1205;22530;-56
2021/09/12 00:23:20;;;;;;;22.90;9.50;;;;;;;17.24;77.93;100346.46;111516;1205;25102;-55
2021/09/12 00:25:48;;;;;;;20.80;9.40;;;;;;;17.19;77.94;100340.91;111627;1205;25163;-58
2021/09/12 00:28:16;;;;;;;18.80;8.90;;;;;;;17.15;77.91;100340.46;111629;1206;24118;-58
2021/09/12 00:30:44;;;;;;;20.00;9.30;;;;;;;17.13;77.82;100342.44;111545;1205;23421;-56
2021/09/12 00:33:13;;;;;;;22.20;9.30;;;;;;;17.10;77.88;100340.09;111590;1203;24208;-55
2021/09/12 00:35:51;;;;;;;17.80;8.80;;;;;;;17.07;77.86;100344.47;111578;1204;25151;-57
2021/09/12 00:38:19;;;;;;;22.70;10.40;;;;;;;17.04;77.82;100341.88;111535;1206;24337;-59
2021/09/12 00:40:47;;;;;;;18.40;9.90;;;;;;;16.99;77.73;100344.20;111581;1204;22700;-55
2021/09/12 00:43:15;;;;;;;22.00;10.50;;;;;;;16.95;77.70;100343.56;111614;1205;25278;-55
2021/09/12 00:45:43;;;;;;;19.80;9.30;;;;;;;16.90;77.75;100341.83;111521;1204;22474;-57
2021/09/12 00:48:12;;;;;;;17.20;8.70;;;;;;;16.86;77.71;100338.63;111731;1203;22445;-56
2021/09/12 00:50:40;;;;;;;22.20;11.00;;;;;;;16.80;77.73;100340.45;111674;1205;24110;-57
2021/09/12 00:53:11;;;;;;;21.00;9.50;;;;;;;16.72;77.88;100331.30;111616;1204;25392;-57
2021/09/12 00:55:44;;;;;;;19.80;9.50;;;;;;;16.66;77.93;100331.50;112011;1205;25193;-58
2021/09/12 00:58:17;;;;;;;17.60;8.50;;;;;;;16.59;77.88;100331.67;112028;1208;23878;-59
2021/09/12 01:00:48;;;;;;;16.60;8.10;;;;;;;16.53;77.87;100333.23;111805;1205;24174;-55
2021/09/12 01:03:19;;;;;;;18.80;8.40;;;;;;;16.46;77.91;100329.03;111611;1203;23514;-57
2021/09/12 01:08:41;;;;;;;22.80;9.10;;;;;;;16.34;77.75;100334.85;111616;1205;24213;-57
2021/09/12 01:11:13;;;;;;;19.20;8.00;;;;;;;16.28;77.94;100337.13;111735;1203;22448;-54
2021/09/12 01:13:45;;;;;;;15.80;8.00;;;;;;;16.22;77.74;100338.73;111580;1204;24147;-58
2021/09/12 01:16:19;;;;;;;19.90;9.20;;;;;;;16.21;77.76;100336.85;111923;1203;24191;-57
2021/09/12 01:18:51;;;;;;;16.40;7.50;;;;;;;16.19;77.60;100335.67;111590;1205;22800;-55
2021/09/12 01:21:24;;;;;;;18.20;8.00;;;;;;;16.18;77.56;100328.65;111566;1207;22454;-57
2021/09/12 01:23:55;;;;;;;17.40;8.30;;;;;;;16.17;77.66;100331.77;111607;1203;25173;-56
2021/09/12 01:26:30;;;;;;;18.70;8.80;;;;;;;16.16;77.79;100330.25;111632;1204;22445;-56
2021/09/12 01:29:00;;;;;;;18.20;9.50;;;;;;;16.11;77.75;100330.01;111559;1205;25168;-57
2021/09/12 01:31:33;;;;;;;18.70;8.40;;;;;;;16.06;77.81;100330.32;111558;1203;22451;-56
2021/09/12 01:34:04;;;;;;;14.00;6.40;;;;;;;16.00;78.01;100329.92;111676;1205;22459;-57
2021/09/12 01:36:35;;;;;;;15.50;7.10;;;;;;;15.95;77.94;100331.96;111781;1204;25107;-57
2021/09/12 01:39:08;;;;;;;15.80;7.50;;;;;;;15.91;77.87;100331.88;111572;1205;22467;-57
2021/09/12 01:41:39;;;;;;;17.80;8.40;;;;;;;15.88;77.97;100332.28;111610;1203;22450;-56
2021/09/12 01:44:11;;;;;;;21.30;8.10;;;;;;;15.86;77.99;100332.15;111681;1204;23840;-56
2021/09/12 01:46:47;;;;;;;18.80;8.60;;;;;;;15.83;77.96;100329.94;111607;1204;22446;-55
2021/09/12 01:49:19;;;;;;;17.60;7.80;;;;;;;15.79;78.01;100327.13;111585;1203;24158;-55
2021/09/12 01:51:50;;;;;;;16.60;7.80;;;;;;;15.75;77.99;100326.66;111571;1203;24088;-56
2021/09/12 01:54:22;;;;;;;17.80;7.80;;;;;;;15.70;77.94;100331.28;111530;1206;22440;-55
2021/09/12 01:56:53;;;;;;;18.10;7.60;;;;;;;15.65;78.00;100331.49;111565;1206;22436;-54
2021/09/12 01:59:24;;;;;;;16.60;7.60;;;;;;;15.61;78.13;100333.02;111571;1205;26334;-57
2021/09/12 02:01:56;;;;;;;17.70;7.90;;;;;;;15.57;78.00;100330.31;111652;1206;22450;-55
2021/09/12 02:04:27;;;;;;;17.00;7.40;;;;;;;15.54;78.04;100329.84;111628;1206;22438;-56
2021/09/12 02:06:58;;;;;;;16.20;7.20;;;;;;;15.52;78.02;100326.46;111622;1203;26432;-56
2021/09/12 02:09:29;;;;;;;14.80;6.40;;;;;;;15.50;77.95;100331.55;111539;1201;22450;-57
2021/09/12 02:12:00;;;;;;;17.30;7.10;;;;;;;15.49;78.03;100334.34;111707;1203;23761;-55
2021/09/12 02:14:32;;;;;;;15.70;6.60;;;;;;;15.48;77.98;100334.55;111554;1203;25196;-56
2021/09/12 02:17:03;;;;;;;14.20;6.60;;;;;;;15.46;77.94;100335.21;111668;1203;22458;-55
2021/09/12 02:19:34;;;;;;;15.00;6.50;;;;;;;15.44;77.91;100341.09;111676;1203;24053;-55
2021/09/12 02:22:07;;;;;;;15.50;6.80;;;;;;;15.44;77.93;100343.13;111577;1203;25129;-57
2021/09/12 02:24:39;;;;;;;18.40;8.10;;;;;;;15.42;78.01;100341.64;111693;1203;23942;-57
2021/09/12 02:27:10;;;;;;;17.80;7.80;;;;;;;15.38;78.12;100336.61;111679;1203;22517;-55
2021/09/12 02:29:41;;;;;;;20.00;8.90;;;;;;;15.33;78.18;100337.48;111636;1205;22451;-57
2021/09/12 02:32:14;;;;;;;17.30;9.00;;;;;;;15.29;78.21;100336.86;111540;1204;24061;-55
2021/09/12 02:34:46;;;;;;;17.30;8.40;;;;;;;15.23;78.31;100336.99;111695;1203;24114;-56
2021/09/12 02:37:17;;;;;;;17.60;8.10;;;;;;;15.19;78.40;100336.73;111570;1203;25145;-55
2021/09/12 02:39:48;;;;;;;19.00;8.10;;;;;;;15.15;78.39;100336.27;111592;1203;22440;-57
2021/09/12 02:42:19;;;;;;;16.60;7.60;;;;;;;15.13;78.46;100332.95;111553;1204;22535;-58
2021/09/12 02:44:50;;;;;;;17.00;7.80;;;;;;;15.11;78.56;100333.95;111820;1203;22470;-57
2021/09/12 02:47:32;;;;;;;21.50;6.70;;;;;;;15.08;78.60;100333.50;111624;1203;22470;-57
2021/09/12 02:50:03;;;;;;;15.10;6.60;;;;;;;15.06;78.65;100332.92;111687;1203;24093;-55
2021/09/12 02:52:36;;;;;;;16.70;7.00;;;;;;;15.06;78.75;100330.83;111651;1203;25161;-56
2021/09/12 02:55:09;;;;;;;15.10;6.60;;;;;;;15.06;78.75;100330.41;111669;1203;22456;-54
2021/09/12 02:57:43;;;;;;;15.50;6.40;;;;;;;15.04;78.90;100335.77;111757;1203;26330;-56
2021/09/12 03:00:16;;;;;;;17.20;7.10;;;;;;;15.01;78.89;100338.38;111581;1202;23687;-60
2021/09/12 03:02:51;;;;;;;13.40;6.90;;;;;;;14.98;78.93;100333.47;111670;1203;22459;-58
2021/09/12 03:05:22;;;;;;;14.40;6.30;;;;;;;14.97;78.97;100336.23;111516;1204;25451;-55
2021/09/12 03:07:53;;;;;;;15.30;6.00;;;;;;;14.94;78.93;100331.52;111569;1203;25054;-54
2021/09/12 03:10:24;;;;;;;15.00;6.00;;;;;;;14.91;79.16;100333.86;111546;1203;22454;-57
2021/09/12 03:12:55;;;;;;;18.70;6.10;;;;;;;14.87;79.06;100336.75;111679;1203;22878;-57
2021/09/12 03:15:27;;;;;;;14.40;6.60;;;;;;;14.85;79.10;100337.27;111559;1205;22456;-57
2021/09/12 03:18:01;;;;;;;16.00;7.00;;;;;;;14.83;79.17;100341.70;111718;1203;25133;-54
2021/09/12 03:20:32;;;;;;;15.90;5.90;;;;;;;14.81;79.00;100342.46;111861;1203;24108;-57
2021/09/12 03:23:04;;;;;;;16.10;6.70;;;;;;;14.80;79.15;100335.77;111829;1203;25088;-55
2021/09/12 03:25:36;;;;;;;16.20;7.60;;;;;;;14.79;79.03;100339.70;111706;1203;22504;-54
2021/09/12 03:28:08;;;;;;;16.00;7.30;;;;;;;14.77;79.17;100342.77;111625;1203;22474;-55
2021/09/12 03:30:40;;;;;;;16.40;7.40;;;;;;;14.74;79.29;100340.61;111638;1203;23132;-57
2021/09/12 03:33:14;;;;;;;16.60;7.00;;;;;;;14.72;79.31;100341.50;111665;1203;23199;-57
2021/09/12 03:35:46;;;;;;;16.40;8.10;;;;;;;14.68;79.43;100345.83;111651;1203;22454;-57
2021/09/12 03:38:17;;;;;;;18.20;8.80;;;;;;;14.65;79.36;100346.18;111763;1203;24118;-59
2021/09/12 03:40:48;;;;;;;16.90;7.80;;;;;;;14.63;79.35;100346.48;111544;1203;26354;-54
2021/09/12 03:43:19;;;;;;;17.20;7.60;;;;;;;14.62;79.25;100342.03;111556;1203;25199;-56
2021/09/12 03:45:50;;;;;;;19.00;7.90;;;;;;;14.58;79.26;100348.96;111555;1203;24070;-55
2021/09/12 03:48:21;;;;;;;21.50;7.80;;;;;;;14.55;79.30;100351.10;111759;1203;23100;-58
2021/09/12 03:50:52;;;;;;;18.00;7.40;;;;;;;14.54;79.54;100353.85;111535;1200;25199;-57
2021/09/12 03:53:24;;;;;;;18.40;7.10;;;;;;;14.54;79.47;100355.95;111642;1203;24114;-55
2021/09/12 03:55:55;;;;;;;18.20;8.90;;;;;;;14.55;79.51;100354.98;111679;1203;22478;-58
2021/09/12 03:58:27;;;;;;;18.70;9.10;;;;;;;14.56;79.68;100347.79;111952;1203;25236;-58
2021/09/12 04:00:58;;;;;;;18.60;9.10;;;;;;;14.56;79.68;100342.38;112003;1203;22610;-57
2021/09/12 04:03:30;;;;;;;20.20;9.50;;;;;;;14.56;79.93;100343.29;111671;1203;25159;-55
2021/09/12 04:06:01;;;;;;;19.70;9.40;;;;;;;14.55;79.99;100344.30;111671;1203;25178;-57
2021/09/12 04:08:32;;;;;;;22.50;9.50;;;;;;;14.54;79.95;100348.79;111729;1203;25203;-57
2021/09/12 04:11:03;;;;;;;19.50;8.90;;;;;;;14.52;80.16;100344.60;111517;1203;22429;-55
2021/09/12 04:13:43;;;;;;;19.90;9.20;;;;;;;14.52;80.25;100347.25;111557;1203;22454;-56
2021/09/12 04:16:13;;;;;;;;;;;;;;;14.51;80.07;100344.44;111600;1203;24180;-56
2021/09/12 04:18:47;;;;;;;19.50;8.90;;;;;;;14.50;80.18;100344.27;111579;1202;22452;-58
2021/09/12 04:21:19;;;;;;;17.40;7.70;;;;;;;14.49;80.27;100347.13;111602;1203;24162;-56
2021/09/12 04:23:50;;;;;;;17.00;7.50;;;;;;;14.49;80.31;100346.56;111743;1203;24048;-54
2021/09/12 04:26:21;;;;;;;18.80;8.00;;;;;;;14.50;80.41;100351.88;111714;1203;24208;-57
2021/09/12 04:29:02;;;;;;;17.00;8.00;;;;;;;14.49;80.40;100351.22;111809;1203;22561;-56
2021/09/12 04:31:33;;;;;;;18.30;8.60;;;;;;;14.50;80.43;100354.23;111632;1196;25190;-57
2021/09/12 04:34:04;;;;;;;17.90;7.90;;;;;;;14.51;80.66;100354.14;111607;1203;22457;-58
2021/09/12 04:36:36;;;;;;;19.80;9.20;;;;;;;14.52;80.64;100357.61;111682;1203;25372;-58
2021/09/12 04:39:07;;;;;;;20.60;9.00;;;;;;;14.53;80.79;100357.67;111660;1202;25047;-58
2021/09/12 04:41:41;;;;;;;19.20;8.80;;;;;;;14.54;80.98;100355.84;111610;1202;25059;-57
2021/09/12 04:44:12;;;;;;;22.40;9.40;;;;;;;14.55;81.09;100356.77;111539;1202;22506;-56
2021/09/12 04:46:43;;;;;;;20.40;9.70;;;;;;;14.55;81.31;100361.57;111683;1203;25141;-55
2021/09/12 04:49:14;;;;;;;20.30;9.90;;;;;;;14.56;81.27;100363.56;111619;1197;22460;-54
2021/09/12 04:51:45;;;;;;;18.50;8.80;;;;;;;14.58;81.63;100362.91;111518;1203;22487;-57
2021/09/12 04:54:16;;;;;;;19.70;9.50;;;;;;;14.58;81.48;100363.62;111563;1203;25150;-55
2021/09/12 04:56:47;;;;;;;20.70;9.50;;;;;;;14.59;81.51;100363.63;111667;1203;22445;-56
2021/09/12 04:59:19;;;;;;;19.90;9.60;;;;;;;14.60;81.62;100357.09;111851;1202;24093;-55
2021/09/12 05:01:51;;;;;;;21.60;9.50;;;;;;;14.61;81.57;100354.70;111580;1202;22461;-56
2021/09/12 05:04:21;;;;;;;20.60;9.20;;;;;;;14.60;81.58;100356.73;111664;1203;24202;-56
2021/09/12 05:06:52;;;;;;;20.80;9.10;;;;;;;14.59;81.80;100360.16;111629;1203;24617;-58
2021/09/12 05:09:24;;;;;;;19.10;8.50;;;;;;;14.58;81.78;100363.47;111580;1203;22999;-58
2021/09/12 05:11:55;;;;;;;23.90;9.10;;;;;;;14.58;81.84;100364.50;111801;1203;24985;-56
2021/09/12 05:14:26;;;;;;;16.50;8.30;;;;;;;14.58;81.79;100368.68;111622;1203;26352;-56
2021/09/12 05:16:59;;;;;;;20.60;9.10;;;;;;;14.58;82.00;100366.34;111777;1202;24048;-55
2021/09/12 05:19:39;;;;;;;;;;;;;;;;;;;;;
2021/09/12 05:22:10;;;;;;;18.20;8.20;;;;;;;14.58;82.07;100369.35;111624;1203;24095;-56
2021/09/12 05:24:47;;;;;;;17.20;8.90;;;;;;;14.60;82.08;100372.73;111660;1202;24199;-57
2021/09/12 05:27:18;;;;;;;20.80;9.70;;;;;;;14.62;82.16;100370.58;111673;1203;22489;-57
2021/09/12 05:29:52;;;;;;;18.70;8.70;;;;;;;14.66;82.48;100375.20;111709;1202;24194;-54
2021/09/12 05:32:23;;;;;;;21.30;10.00;;;;;;;14.70;82.74;100370.16;111754;1203;22466;-55
2021/09/12 05:34:54;;;;;;;22.60;11.10;;;;;;;14.76;82.92;100375.80;111728;1203;25083;-59
2021/09/12 05:37:25;;;;;;;27.10;13.00;;;;;;;14.83;83.35;100376.45;111661;1203;25150;-56
2021/09/12 05:39:56;;;;;;;23.50;12.30;;;;;;;14.91;83.46;100374.39;111611;1203;22447;-57
2021/09/12 05:42:27;;;;;;;26.50;12.40;;;;;;;14.99;83.55;100376.55;111892;1203;22454;-57
2021/09/12 05:44:58;;;;;;;24.80;13.20;;;;;;;15.07;83.79;100375.11;111904;1203;24102;-57
2021/09/12 05:47:39;;;;;;;22.90;11.30;;;;;;;15.15;84.12;100377.02;111747;1202;22444;-56
2021/09/12 05:50:09;;;;;;;;;;;;;;;15.23;84.27;100371.73;111771;1202;25370;-55
2021/09/12 05:52:40;;;;;;;22.00;11.60;;;;;;;15.30;84.44;100365.03;111858;1203;22454;-56
2021/09/12 05:55:12;;;;;;;20.30;11.20;;;;;;;15.37;84.64;100368.07;111644;1203;25227;-57
2021/09/12 05:57:43;;;;;;;26.30;13.10;;;;;;;15.45;84.58;100368.36;111693;1202;22456;-58
2021/09/12 06:00:16;;;;;;;23.60;12.30;;;;;;;15.53;84.84;100365.09;111744;1203;24179;-58
2021/09/12 06:02:48;;;;;;;22.80;12.30;;;;;;;15.61;84.91;100370.58;111761;1203;22683;-56
2021/09/12 06:05:19;;;;;;;20.80;12.20;;;;;;;15.69;85.05;100368.79;111642;1203;22473;-57
2021/09/12 06:07:50;;;;;;;21.10;10.90;;;;;;;15.77;85.04;100373.70;111609;1203;22439;-57
2021/09/12 06:10:22;;;;;;;22.50;11.60;;;;;;;15.85;84.98;100377.08;111700;1203;25116;-56
2021/09/12 06:12:53;;;;;;;21.80;12.50;;;;;;;15.93;85.35;100380.30;111703;1203;22451;-57
2021/09/12 06:15:23;;;;;;;23.50;12.00;;;;;;;16.01;85.48;100380.19;111557;1203;22478;-55
2021/09/12 06:17:55;;;;;;;21.80;11.00;;;;;;;16.09;85.44;100386.68;111610;1203;23074;-55
2021/09/12 06:20:26;;;;;;;23.20;11.00;;;;;;;16.17;85.54;100386.63;111674;1203;24124;-55
2021/09/12 06:22:57;;;;;;;24.10;11.50;;;;;;;16.24;85.41;100389.33;111519;1203;22450;-57
2021/09/12 06:25:28;;;;;;;21.50;10.90;;;;;;;16.32;85.52;100393.15;111571;1203;22454;-55
2021/09/12 06:27:58;;;;;;;18.70;10.50;;;;;;;16.39;85.43;100395.15;111729;1203;24070;-57
2021/09/12 06:30:29;;;;;;;20.70;10.10;;;;;;;16.46;85.76;100398.46;111651;1203;23558;-57
2021/09/12 06:33:00;;;;;;;18.70;9.70;;;;;;;16.52;85.65;100402.56;111636;1203;22457;-55
2021/09/12 06:35:31;;;;;;;20.00;9.90;;;;;;;16.58;85.54;100404.55;111831;1203;24328;-58
2021/09/12 06:38:02;;;;;;;19.80;9.60;;;;;;;16.64;85.44;100405.81;111770;1203;25150;-57
2021/09/12 06:40:34;;;;;;;23.00;11.00;;;;;;;16.69;85.38;100406.58;111504;1202;22485;-55
2021/09/12 06:43:06;;;;;;;19.30;9.70;;;;;;;16.73;85.49;100407.12;111940;1203;22448;-57
2021/09/12 06:45:37;;;;;;;20.00;10.10;;;;;;;16.79;85.44;100410.84;111646;1202;25330;-57
2021/09/12 06:48:08;;;;;;;23.00;9.50;;;;;;;16.85;85.50;100405.80;111825;1202;22460;-57
2021/09/12 06:50:59;;;;;;;21.20;9.80;;;;;;;16.92;85.40;100404.84;111621;1203;24227;-56
2021/09/12 06:53:33;;;;;;;21.00;11.00;;;;;;;16.99;85.67;100406.46;111843;1203;22455;-56
2021/09/12 06:56:05;;;;;;;19.90;9.70;;;;;;;17.06;85.55;100404.33;111863;1203;25049;-59
2021/09/12 06:58:36;;;;;;;21.40;10.40;;;;;;;17.12;85.68;100399.61;112010;1203;22437;-59
2021/09/12 07:01:07;;;;;;;22.00;10.90;;;;;;;17.19;85.61;100404.67;111957;1203;22431;-59
2021/09/12 07:03:39;;;;;;;25.10;11.50;;;;;;;17.26;85.62;100400.84;111774;1202;22448;-58
2021/09/12 07:06:10;;;;;;;20.60;10.00;;;;;;;17.34;85.78;100405.05;111604;1203;22437;-58
2021/09/12 07:08:42;;;;;;;21.90;11.80;;;;;;;17.42;85.65;100399.30;111624;1203;24069;-60
2021/09/12 07:11:14;;;;;;;20.80;12.00;;;;;;;17.49;85.48;100397.89;111710;1203;22470;-58
2021/09/12 07:13:45;;;;;;;19.10;9.60;;;;;;;17.56;85.40;100406.98;111557;1196;22439;-55
2021/09/12 07:16:16;;;;;;;20.30;11.00;;;;;;;17.63;85.49;100407.39;111828;1203;22868;-55
2021/09/12 07:18:48;;;;;;;22.40;11.30;;;;;;;17.71;85.46;100406.93;111998;1202;22447;-58
2021/09/12 07:21:19;;;;;;;21.40;11.10;;;;;;;17.77;85.33;100408.12;111667;1202;25163;-58
2021/09/12 07:23:51;;;;;;;23.20;12.30;;;;;;;17.83;85.45;100408.94;111770;1202;24109;-57
2021/09/12 07:26:25;;;;;;;22.90;12.20;;;;;;;17.92;85.48;100407.39;111727;1202;24167;-60
2021/09/12 07:28:56;;;;;;;24.40;12.50;;;;;;;18.00;85.55;100409.67;111636;1203;22449;-58
2021/09/12 07:31:27;;;;;;;26.60;13.50;;;;;;;18.08;85.44;100405.41;111598;1203;22434;-58
2021/09/12 07:33:58;;;;;;;31.90;14.60;;;;;;;18.17;85.78;100410.35;111621;1203;22550;-55
2021/09/12 07:36:30;;;;;;;26.20;14.00;;;;;;;18.24;85.35;100410.85;111544;1204;26362;-58
2021/09/12 07:39:01;;;;;;;24.70;13.10;;;;;;;18.31;85.16;100412.73;111794;1196;25318;-59
2021/09/12 07:41:42;;;;;;;;;;;;;;;;;;;;;
2021/09/12 07:44:14;;;;;;;24.70;12.60;;;;;;;18.42;84.65;100420.34;111646;1203;22497;-60
2021/09/12 07:46:45;;;;;;;27.20;13.80;;;;;;;18.47;84.60;100418.93;111871;1203;22490;-59
2021/09/12 07:49:17;;;;;;;24.70;12.60;;;;;;;18.52;84.32;100423.35;111636;1203;22595;-60
2021/09/12 07:51:48;;;;;;;24.70;13.30;;;;;;;18.55;84.38;100426.02;111790;1202;22453;-57
2021/09/12 07:54:18;;;;;;;24.60;12.60;;;;;;;18.60;84.32;100426.45;111605;1203;25184;-57
2021/09/12 07:56:50;;;;;;;25.10;13.50;;;;;;;18.65;83.99;100423.31;111609;1202;25257;-58
2021/09/12 07:59:21;;;;;;;24.20;13.90;;;;;;;18.69;84.08;100426.30;111555;1203;22618;-61
2021/09/12 08:01:52;;;;;;;27.80;15.40;;;;;;;18.75;83.89;100423.87;111567;1203;22440;-59
2021/09/12 08:04:23;;;;;;;25.70;14.20;;;;;;;18.83;83.96;100417.45;111617;1202;25351;-57
2021/09/12 08:06:54;;;;;;;26.60;13.80;;;;;;;18.92;83.72;100423.52;111630;1203;24927;-59
2021/09/12 08:09:25;;;;;;;24.70;13.40;;;;;;;18.97;83.34;100424.32;111700;1203;24116;-58
2021/09/12 08:11:55;;;;;;;25.00;12.40;;;;;;;18.99;83.28;100423.89;111589;1203;22434;-59
2021/09/12 08:14:26;;;;;;;24.70;12.80;;;;;;;19.07;83.21;100425.34;111581;1203;22470;-58
2021/09/12 08:16:57;;;;;;;25.60;13.10;;;;;;;19.15;83.11;100427.70;111833;1203;22450;-57
2021/09/12 08:19:31;;;;;;;23.70;13.00;;;;;;;19.22;82.89;100422.71;111589;1203;22440;-59
2021/09/12 08:22:02;;;;;;;30.00;17.30;;;;;;;19.26;82.57;100424.77;111691;1203;24370;-58
2021/09/12 08:24:36;;;;;;;24.50;13.80;;;;;;;19.28;82.54;100427.38;112099;1203;22454;-58
2021/09/12 08:27:28;;;;;;;25.40;13.30;;;;;;;19.31;82.36;100428.52;111634;1203;22465;-56
2021/09/12 08:29:59;;;;;;;23.70;12.90;;;;;;;19.31;82.04;100426.86;111697;1196;22450;-59
2021/09/12 08:32:30;;;;;;;25.60;13.60;;;;;;;19.30;81.95;100426.09;111621;1202;23993;-58
2021/09/12 08:35:02;;;;;;;25.60;12.90;;;;;;;19.30;81.95;100430.05;111577;1203;24298;-59
2021/09/12 08:37:34;;;;;;;27.60;13.80;;;;;;;19.31;81.99;100426.14;111596;1203;22446;-59
2021/09/12 08:40:07;;;;;;;26.20;14.20;;;;;;;19.33;81.96;100429.44;111804;1203;25142;-59
2021/09/12 08:42:41;;;;;;;25.80;13.80;;;;;;;19.35;82.00;100430.33;111938;1203;23098;-58
2021/09/12 08:45:13;;;;;;;25.40;13.80;;;;;;;19.37;81.80;100428.56;111720;1203;24206;-57
2021/09/12 08:47:45;;;;;;;28.20;14.70;;;;;;;19.40;81.77;100433.11;111691;1203;25157;-59
2021/09/12 08:50:16;;;;;;;23.60;12.10;;;;;;;19.42;81.79;100425.83;111723;1203;22450;-59
2021/09/12 08:52:47;;;;;;;23.60;13.00;;;;;;;19.46;81.78;100428.33;111619;1203;22457;-57
2021/09/12 08:55:19;;;;;;;27.90;14.70;;;;;;;19.51;81.81;100426.61;111619;1203;25042;-58
2021/09/12 08:58:02;;;;;;;;;;;;;;;;;;;;;
2021/09/12 09:00:34;;;;;;;71.20;45.00;;;;;;;19.59;81.81;100425.48;111800;1203;22442;-56
2021/09/12 09:03:06;;;;;;;44.20;26.90;;;;;;;19.64;81.73;100422.98;111625;1203;24101;-57
2021/09/12 09:05:40;;;;;;;27.60;13.70;;;;;;;19.69;81.55;100425.95;111607;1203;22473;-57
2021/09/12 09:08:15;;;;;;;25.30;12.60;;;;;;;19.72;81.29;100423.89;111838;1203;22433;-58
2021/09/12 09:10:48;;;;;;;24.20;11.50;;;;;;;19.75;81.12;100423.94;111686;1202;24160;-58
2021/09/12 09:13:36;;;;;;;22.90;11.70;;;;;;;19.79;80.88;100426.34;111820;1203;23113;-58
2021/09/12 09:16:25;;;;;;;41.40;20.70;;;;;;;19.85;81.00;100422.61;111588;1203;24102;-59
2021/09/12 09:19:04;;;;;;;25.30;11.60;;;;;;;19.96;81.23;100419.48;111789;1202;25143;-59
2021/09/12 09:24:29;;;;;;;30.30;15.60;;;;;;;20.12;80.67;100420.08;111603;1203;22498;-57
2021/09/12 09:27:04;;;;;;;29.00;14.10;;;;;;;20.21;80.76;100418.83;111760;1203;22453;-59
2021/09/12 09:29:38;;;;;;;29.10;12.20;;;;;;;20.30;80.64;100416.30;111861;1203;22456;-59
2021/09/12 09:32:12;;;;;;;23.00;11.10;;;;;;;20.39;80.41;100421.96;111705;1203;22437;-58
2021/09/12 09:34:45;;;;;;;22.90;10.50;;;;;;;20.46;79.60;100417.31;111712;1203;22636;-59
2021/09/12 09:37:19;;;;;;;32.50;16.90;;;;;;;20.48;79.77;100416.96;111639;1203;22439;-59
2021/09/12 09:39:52;;;;;;;20.80;10.40;;;;;;;20.54;79.83;100417.83;111794;1203;22441;-58
2021/09/12 09:42:38;;;;;;;21.80;10.30;;;;;;;20.60;79.33;100420.70;111726;1203;25153;-59
2021/09/12 09:45:12;;;;;;;20.90;9.90;;;;;;;20.64;79.20;100419.86;111937;1203;22472;-58
2021/09/12 09:47:45;;;;;;;21.30;8.80;;;;;;;20.68;79.16;100416.21;111711;1203;22495;-58
2021/09/12 09:50:18;;;;;;;16.50;7.80;;;;;;;20.72;78.52;100413.77;111741;1203;26629;-58
2021/09/12 09:52:52;;;;;;;17.80;7.50;;;;;;;20.76;78.51;100413.16;111654;1203;22429;-57
2021/09/12 09:55:26;;;;;;;17.10;8.50;;;;;;;20.82;78.17;100414.03;111843;1203;25057;-58
2021/09/12 09:57:59;;;;;;;16.50;6.80;;;;;;;20.85;78.33;100409.20;111996;1203;22436;-59
2021/09/12 10:00:30;;;;;;;18.90;8.40;;;;;;;20.92;77.71;100408.09;111724;1203;25874;-59
2021/09/12 10:03:03;;;;;;;17.30;8.00;;;;;;;20.97;77.66;100401.60;111671;1203;24055;-57
2021/09/12 10:05:35;;;;;;;18.50;8.60;;;;;;;21.03;77.43;100399.01;112007;1203;25401;-60
2021/09/12 10:08:08;;;;;;;19.00;7.90;;;;;;;21.09;76.93;100390.27;111560;1203;25367;-60
2021/09/12 10:10:40;;;;;;;16.50;7.00;;;;;;;21.13;76.37;100389.58;111728;1203;25416;-59
2021/09/12 10:13:23;;;;;;;;;;;;;;;;;;;;;
2021/09/12 10:15:58;;;;;;;14.80;6.40;;;;;;;21.18;75.22;100389.56;111502;1203;24638;-57
2021/09/12 10:18:32;;;;;;;15.50;6.10;;;;;;;21.22;75.10;100385.48;111586;1204;25158;-61
2021/09/12 10:21:26;;;;;;;17.40;7.30;;;;;;;21.27;75.02;100382.44;111559;1203;22453;-56
2021/09/12 10:24:06;;;;;;;17.40;7.40;;;;;;;21.32;74.59;100385.08;112196;1203;22472;-59
2021/09/12 10:26:42;;;;;;;15.80;7.30;;;;;;;21.34;74.47;100382.85;111763;1203;22479;-60
2021/09/12 10:29:46;;;;;;;14.80;5.90;;;;;;;21.35;74.43;100384.54;111671;1202;22736;-59
2021/09/12 10:32:37;;;;;;;18.70;7.80;;;;;;;21.37;74.08;100384.86;111655;1198;24117;-59
2021/09/12 10:35:24;;;;;;;18.10;7.00;;;;;;;21.39;73.52;100380.84;111626;1203;23114;-59
2021/09/12 10:38:03;;;;;;;14.70;6.30;;;;;;;21.42;73.62;100382.50;111377;1203;22574;-62
2021/09/12 10:41:09;;;;;;;14.00;5.90;;;;;;;21.48;72.98;100381.23;111653;1202;25099;-58
2021/09/12 10:43:45;;;;;;;13.80;5.10;;;;;;;21.58;71.53;100380.85;111556;1202;22437;-59
2021/09/12 10:46:39;;;;;;;8.90;3.80;;;;;;;21.63;71.38;100379.84;111771;1203;22466;-58
2021/09/12 10:49:15;;;;;;;13.60;5.40;;;;;;;21.62;70.76;100379.00;111657;1197;22455;-59
2021/09/12 10:51:49;;;;;;;15.00;6.50;;;;;;;21.65;70.68;100379.45;111833;1203;24153;-59
2021/09/12 10:54:20;;;;;;;15.50;6.60;;;;;;;21.69;70.06;100375.20;111709;1203;25445;-59
2021/09/12 10:57:07;;;;;;;13.90;3.80;;;;;;;21.73;69.63;100376.08;111967;1203;24199;-58
2021/09/12 10:59:38;;;;;;;8.60;3.00;;;;;;;21.75;68.98;100374.13;111804;1203;22535;-60
2021/09/12 11:02:16;;;;;;;8.70;2.80;;;;;;;21.74;68.49;100370.38;111755;1203;24147;-62
2021/09/12 11:04:47;;;;;;;9.00;2.80;;;;;;;21.75;68.47;100368.56;111525;1203;25161;-61
2021/09/12 11:07:18;;;;;;;12.40;3.80;;;;;;;21.74;68.21;100365.07;111408;1203;22451;-59
2021/09/12 11:09:51;;;;;;;10.00;3.00;;;;;;;21.77;68.26;100367.33;111491;1202;22428;-58
2021/09/12 11:12:30;;;;;;;11.10;3.80;;;;;;;21.82;68.13;100364.21;111694;1202;22442;-60
2021/09/12 11:15:01;;;;;;;9.70;3.40;;;;;;;21.85;68.11;100361.48;111595;1203;22688;-59
2021/09/12 11:17:34;;;;;;;9.50;3.00;;;;;;;21.85;67.47;100359.54;111781;1203;22476;-58
2021/09/12 11:20:07;;;;;;;10.80;4.00;;;;;;;21.90;67.90;100360.27;112300;1203;22447;-58
2021/09/12 11:22:53;;;;;;;9.80;3.50;;;;;;;21.96;67.69;100355.70;111712;1202;22647;-60
2021/09/12 11:25:29;;;;;;;9.10;3.60;;;;;;;21.98;67.16;100355.76;112056;1203;22459;-60
2021/09/12 11:28:06;;;;;;;9.80;3.30;;;;;;;21.96;66.63;100352.70;111751;1203;22524;-59
2021/09/12 11:30:41;;;;;;;9.20;2.40;;;;;;;21.98;66.77;100353.94;111659;1203;25463;-60
2021/09/12 11:33:12;;;;;;;5.90;2.10;;;;;;;22.07;66.49;100348.23;111625;1203;22434;-62
2021/09/12 11:36:00;;;;;;;6.50;2.30;;;;;;;22.14;65.82;100343.71;111780;1203;23024;-59
2021/09/12 11:38:32;;;;;;;7.20;2.50;;;;;;;22.19;65.96;100339.17;112140;1203;22925;-58
2021/09/12 11:41:03;;;;;;;6.00;2.00;;;;;;;22.27;65.42;100340.52;111762;1203;24152;-59
2021/09/12 11:43:36;;;;;;;6.30;2.10;;;;;;;22.34;65.20;100335.83;111600;1203;22506;-61